Time;durP1;ratioP1;P1;durP2;ratioP2;P2;SDS_P1;SDS_P2;PMS_P1;PMS_P2;Temp;Humidity;BMP_temperature;BMP_pressure;BME280_temperature;BME280_humidity;BME280_pressure;Samples;Min_cycle;Max_cycle;Signal;HPM_P1;HPM_P2
2022/03/01 00:00:37;;;;;;;19.48;8.25;;;;;;;4.79;59.96;101849.53;6282881;22;20012;-81
2022/03/01 00:03:05;;;;;;;21.88;8.27;;;;;;;4.83;60.10;101845.81;6285523;22;20022;-82
2022/03/01 00:05:31;;;;;;;25.85;7.93;;;;;;;4.74;60.56;101854.22;6288211;22;20087;-82
2022/03/01 00:08:15;;;;;;;19.08;7.43;;;;;;;4.77;60.33;101866.34;6284193;22;20004;-82
2022/03/01 00:10:41;;;;;;;17.20;7.10;;;;;;;4.93;59.93;101867.09;6286815;22;20026;-81
2022/03/01 00:13:07;;;;;;;17.30;7.10;;;;;;;4.88;59.57;101874.38;6286659;22;20803;-82
2022/03/01 00:15:37;;;;;;;18.23;6.97;;;;;;;4.86;60.01;101877.13;6292974;22;20010;-82
2022/03/01 00:18:29;;;;;;;13.75;7.00;;;;;;;4.92;60.03;101875.91;6296700;22;20004;-78
2022/03/01 00:21:04;;;;;;;19.08;6.70;;;;;;;4.88;60.28;101885.75;6302243;22;20022;-83
2022/03/01 00:23:40;;;;;;;20.73;7.90;;;;;;;4.71;60.09;101885.91;6309812;22;20027;-84
2022/03/01 00:26:11;;;;;;;22.95;7.60;;;;;;;4.73;60.84;101880.56;6299717;22;20011;-82
2022/03/01 00:28:44;;;;;;;24.48;8.52;;;;;;;4.78;60.88;101889.00;6294095;22;20099;-80
2022/03/01 00:31:16;;;;;;;17.50;8.20;;;;;;;4.73;60.75;101912.09;6291225;22;20015;-80
2022/03/01 00:33:43;;;;;;;18.45;7.72;;;;;;;4.60;60.55;101889.19;6285936;22;20022;-82
2022/03/01 00:36:15;;;;;;;15.45;7.45;;;;;;;4.64;60.68;101902.94;6294289;22;20027;-82
2022/03/01 00:38:41;;;;;;;18.67;8.00;;;;;;;4.67;60.24;101915.94;6295270;22;20030;-81
2022/03/01 00:41:07;;;;;;;21.48;7.25;;;;;;;4.69;59.69;101906.16;6291659;22;20028;-79
2022/03/01 00:43:33;;;;;;;23.13;7.32;;;;;;;4.69;59.10;101909.66;6290688;22;20086;-80
2022/03/01 00:46:03;;;;;;;15.43;6.90;;;;;;;4.76;59.20;101919.78;6283951;22;20019;-80
2022/03/01 00:48:28;;;;;;;25.77;8.98;;;;;;;4.76;59.04;101922.41;6285955;22;20060;-82
2022/03/01 00:50:54;;;;;;;16.15;7.45;;;;;;;4.76;58.78;101922.41;6284686;22;20016;-83
2022/03/01 00:53:24;;;;;;;17.65;7.13;;;;;;;4.84;58.95;101935.94;6293119;22;20031;-79
2022/03/01 00:55:50;;;;;;;17.00;7.68;;;;;;;4.97;57.44;101935.09;6304229;22;19995;-81
2022/03/01 00:58:18;;;;;;;19.02;7.65;;;;;;;4.86;57.91;101949.81;6303368;22;19988;-82
2022/03/01 01:00:44;;;;;;;15.90;6.85;;;;;;;4.69;58.35;101942.94;6301078;22;20033;-80
2022/03/01 01:03:09;;;;;;;17.10;6.90;;;;;;;4.73;58.11;101946.22;6304185;22;20003;-81
2022/03/01 01:05:35;;;;;;;15.65;7.25;;;;;;;4.71;57.95;101951.56;6302507;22;20026;-80
2022/03/01 01:08:01;;;;;;;19.13;6.85;;;;;;;4.82;57.78;101964.91;6297543;22;20008;-81
2022/03/01 01:10:27;;;;;;;13.63;7.45;;;;;;;4.63;58.85;101956.44;6295830;22;20016;-82
2022/03/01 01:12:56;;;;;;;19.58;7.00;;;;;;;4.67;58.14;101956.13;6297527;22;20078;-80
2022/03/01 01:15:22;;;;;;;20.13;7.68;;;;;;;4.77;57.90;101958.25;6296788;22;20007;-79
2022/03/01 01:17:50;;;;;;;15.50;6.63;;;;;;;4.64;58.44;101965.97;6291837;22;20034;-82
2022/03/01 01:20:17;;;;;;;20.45;6.53;;;;;;;4.76;58.06;101959.19;6286563;22;20008;-80
2022/03/01 01:23:05;;;;;;;22.85;7.30;;;;;;;4.80;58.05;101966.81;6285525;22;20015;-81
2022/03/01 01:25:56;;;;;;;18.45;7.18;;;;;;;4.78;58.38;101966.03;6294045;22;20018;-84
2022/03/01 01:28:33;;;;;;;19.27;7.82;;;;;;;4.83;58.23;101973.66;6285939;22;20014;-79
2022/03/01 01:31:00;;;;;;;22.98;7.38;;;;;;;4.62;58.59;101987.09;6300770;22;19999;-81
2022/03/01 01:33:25;;;;;;;15.20;7.00;;;;;;;4.47;58.77;101982.72;6286180;22;20015;-82
2022/03/01 01:36:00;;;;;;;18.95;7.75;;;;;;;4.54;58.70;101986.66;6288758;22;20034;-81
2022/03/01 01:38:37;;;;;;;20.80;7.68;;;;;;;4.49;59.19;101991.34;6288608;22;19987;-81
2022/03/01 01:41:09;;;;;;;17.10;7.53;;;;;;;4.48;58.84;101997.53;6293594;22;20020;-81
2022/03/01 01:43:37;;;;;;;14.30;7.63;;;;;;;4.53;57.75;101992.88;6293228;22;20008;-79
2022/03/01 01:46:06;;;;;;;15.35;6.88;;;;;;;4.44;58.36;101995.19;6296805;22;20062;-83
2022/03/01 01:48:32;;;;;;;22.25;7.68;;;;;;;4.42;58.71;101992.63;6289346;22;20078;-81
2022/03/01 01:50:57;;;;;;;13.82;6.65;;;;;;;4.43;57.79;101998.72;6298232;22;19995;-83
2022/03/01 01:53:23;;;;;;;16.23;7.15;;;;;;;4.56;57.20;102013.69;6292678;22;20012;-79
2022/03/01 01:55:51;;;;;;;14.20;6.78;;;;;;;4.61;56.97;102003.75;6325585;22;20007;-78
2022/03/01 01:58:20;;;;;;;12.20;6.80;;;;;;;4.58;56.65;102003.94;6306769;22;20011;-80
2022/03/01 02:00:52;;;;;;;16.35;6.70;;;;;;;4.51;57.04;102002.59;6311858;22;20015;-85
2022/03/01 02:03:30;;;;;;;11.93;6.50;;;;;;;4.56;56.26;101999.72;6293881;22;20073;-85
2022/03/01 02:05:55;;;;;;;12.80;6.20;;;;;;;4.60;55.77;101990.75;6293944;22;20109;-80
2022/03/01 02:08:32;;;;;;;18.88;7.00;;;;;;;4.48;54.92;101992.28;6291579;22;20007;-86
2022/03/01 02:13:59;;;;;;;14.35;6.82;;;;;;;4.39;55.63;102007.69;6340671;22;20018;-84
2022/03/01 02:16:25;;;;;;;15.00;6.05;;;;;;;4.40;54.83;102010.25;6354021;22;20043;-84
2022/03/01 02:18:52;;;;;;;13.50;6.63;;;;;;;4.38;55.06;102006.84;6356701;22;20036;-83
2022/03/01 02:21:29;;;;;;;16.30;6.80;;;;;;;4.51;55.03;102007.00;6360282;22;19995;-84
2022/03/01 02:24:37;;;;;;;20.45;7.57;;;;;;;4.44;55.07;102006.50;6261970;22;20034;-84
2022/03/01 02:27:06;;;;;;;12.07;6.32;;;;;;;4.41;55.73;102006.66;6236483;22;20447;-85
2022/03/01 02:29:37;;;;;;;12.73;6.07;;;;;;;4.45;55.58;102009.97;6289970;22;20389;-85
2022/03/01 02:32:09;;;;;;;12.82;6.18;;;;;;;4.42;54.94;102008.38;6287636;22;20072;-85
2022/03/01 02:34:35;;;;;;;14.45;6.10;;;;;;;4.44;54.79;102014.38;6343726;22;20011;-82
2022/03/01 02:37:07;;;;;;;14.80;6.30;;;;;;;4.37;55.47;102015.69;6355414;22;20067;-82
2022/03/01 02:40:00;;;;;;;18.02;6.30;;;;;;;4.55;54.41;102019.03;6355664;22;20018;-83
2022/03/01 02:42:31;;;;;;;11.75;6.32;;;;;;;4.56;54.63;102016.31;6362383;22;20033;-84
2022/03/01 02:45:20;;;;;;;12.13;6.55;;;;;;;4.73;53.38;102022.38;6349945;22;19995;-83
2022/03/01 02:48:18;;;;;;;14.52;5.95;;;;;;;4.64;54.09;102016.72;6362106;22;20060;-83
2022/03/01 02:50:44;;;;;;;13.93;6.40;;;;;;;4.74;53.57;102019.66;6364972;22;19994;-83
2022/03/01 02:53:50;;;;;;;12.90;6.55;;;;;;;4.59;54.31;102025.78;6354673;22;20007;-83
2022/03/01 02:59:05;;;;;;;12.38;7.03;;;;;;;4.96;52.71;102014.03;6355599;22;20023;-85
2022/03/01 03:01:31;;;;;;;12.23;6.18;;;;;;;4.89;52.70;102015.31;6355370;22;20061;-83
2022/03/01 03:03:57;;;;;;;15.75;6.20;;;;;;;4.80;53.39;102016.69;6346846;22;20010;-84
2022/03/01 03:06:25;;;;;;;17.63;7.00;;;;;;;4.93;53.08;102020.31;6353201;22;19991;-84
2022/03/01 03:09:13;;;;;;;16.90;6.60;;;;;;;5.14;52.19;102018.19;6349634;22;20366;-84
2022/03/01 03:11:48;;;;;;;12.88;6.55;;;;;;;4.84;52.87;102022.63;6317300;22;19999;-86
2022/03/01 03:15:08;;;;;;;11.13;5.63;;;;;;;4.98;52.19;102022.66;6343503;22;20058;-85
2022/03/01 03:18:00;;;;;;;14.48;6.40;;;;;;;4.78;52.43;102022.94;6333585;22;19995;-86
2022/03/01 03:20:41;;;;;;;12.15;5.95;;;;;;;4.90;50.97;102035.41;6348975;22;20037;-83
2022/03/01 03:23:45;;;;;;;16.42;6.03;;;;;;;4.94;49.32;102021.97;6302698;22;19996;-84
2022/03/01 03:26:30;;;;;;;11.48;5.75;;;;;;;4.88;49.79;102016.22;6305547;22;20000;-81
2022/03/01 03:29:12;;;;;;;12.60;6.28;;;;;;;4.73;49.70;102031.13;6305531;22;20007;-83
2022/03/01 03:31:42;;;;;;;13.55;6.82;;;;;;;4.56;50.43;102037.31;6301241;22;20026;-82
2022/03/01 03:34:37;;;;;;;12.50;6.30;;;;;;;4.56;51.37;102037.31;6299925;22;20012;-84
2022/03/01 03:37:04;;;;;;;13.25;5.80;;;;;;;4.67;50.59;102034.91;6204086;23;20044;-82
2022/03/01 03:39:30;;;;;;;10.32;6.03;;;;;;;4.86;49.35;102039.13;6186187;23;20013;-86
2022/03/01 03:41:55;;;;;;;11.43;5.25;;;;;;;4.75;49.76;102037.13;6223279;23;20123;-83
2022/03/01 03:44:20;;;;;;;12.10;5.40;;;;;;;4.66;50.86;102037.66;6223171;23;20017;-84
2022/03/01 03:47:01;;;;;;;13.07;5.90;;;;;;;4.81;50.93;102033.28;6227303;23;20020;-83
2022/03/01 03:49:29;;;;;;;13.38;5.55;;;;;;;4.84;49.46;102041.00;6295423;22;20093;-83
2022/03/01 03:51:55;;;;;;;11.63;6.20;;;;;;;4.76;50.11;102044.06;6291540;22;20022;-83
2022/03/01 03:54:28;;;;;;;11.95;5.65;;;;;;;4.67;50.99;102045.41;6296352;22;20012;-83
2022/03/01 04:00:11;;;;;;;15.65;6.40;;;;;;;4.64;50.88;102036.88;6181282;23;20040;-85
2022/03/01 04:02:57;;;;;;;15.00;6.10;;;;;;;4.74;50.45;102038.03;6240901;22;20565;-86
2022/03/01 04:05:29;;;;;;;9.80;6.07;;;;;;;4.44;51.03;102043.25;6301267;22;20002;-84
2022/03/01 04:07:55;;;;;;;11.55;6.10;;;;;;;4.42;51.17;102045.13;6294732;22;20008;-81
2022/03/01 04:13:03;;;;;;;13.02;5.80;;;;;;;4.73;50.92;102049.50;6342920;22;20013;-83
2022/03/01 04:16:05;;;;;;;11.32;5.72;;;;;;;4.64;50.41;102050.00;6361653;22;19998;-82
2022/03/01 04:18:42;;;;;;;10.07;5.80;;;;;;;4.61;50.46;102051.03;6355844;22;20015;-83
2022/03/01 04:21:55;;;;;;;11.35;6.07;;;;;;;4.75;50.85;102047.63;6300332;22;20026;-82
2022/03/01 04:24:42;;;;;;;12.90;5.95;;;;;;;4.74;54.65;102048.53;6302205;22;20010;-84
2022/03/01 04:27:23;;;;;;;14.77;6.32;;;;;;;4.57;52.68;102043.44;6296616;22;20027;-83
2022/03/01 04:29:49;;;;;;;10.20;5.32;;;;;;;4.35;52.44;102050.78;6295981;22;20018;-82
2022/03/01 04:32:34;;;;;;;11.25;6.03;;;;;;;4.44;51.99;102050.28;6297649;22;20008;-83
2022/03/01 04:38:37;;;;;;;19.75;7.30;;;;;;;4.10;55.07;102053.94;6297149;22;20428;-85
2022/03/01 04:41:07;;;;;;;12.32;6.28;;;;;;;3.94;54.71;102053.91;6297526;22;20003;-85
2022/03/01 04:43:33;;;;;;;15.15;6.38;;;;;;;3.87;54.98;102046.44;6294938;22;20098;-85
2022/03/01 04:45:59;;;;;;;12.27;6.55;;;;;;;3.87;55.54;102043.81;6294733;22;20034;-84
2022/03/01 04:48:33;;;;;;;15.52;6.63;;;;;;;3.88;55.39;102048.16;6270700;22;20031;-87
2022/03/01 04:50:58;;;;;;;11.55;6.65;;;;;;;3.90;55.47;102049.75;6299250;22;20015;-83
2022/03/01 04:56:07;;;;;;;15.45;6.55;;;;;;;3.88;56.27;102053.41;6321579;22;20019;-83
2022/03/01 04:58:47;;;;;;;11.70;6.55;;;;;;;4.05;57.89;102055.94;6330226;22;20062;-83
2022/03/01 05:04:09;;;;;;;36.63;8.25;;;;;;;4.16;57.18;102053.59;6281387;22;1124682;-83
2022/03/01 05:06:35;;;;;;;23.60;7.43;;;;;;;4.14;57.36;102047.59;6299643;22;20029;-83
2022/03/01 05:09:04;;;;;;;14.88;7.50;;;;;;;4.38;58.31;102059.34;6326323;22;20011;-85
2022/03/01 05:11:30;;;;;;;11.93;6.63;;;;;;;4.37;56.93;102062.91;6319543;22;20094;-83
2022/03/01 05:13:56;;;;;;;14.13;6.88;;;;;;;4.31;57.31;102057.16;6329157;22;20018;-82
2022/03/01 05:16:47;;;;;;;16.80;6.80;;;;;;;4.40;60.62;102060.13;6328321;22;20018;-81
2022/03/01 05:19:14;;;;;;;18.63;6.95;;;;;;;4.21;56.98;102067.28;6327723;22;20015;-85
2022/03/01 05:21:41;;;;;;;14.85;7.50;;;;;;;4.34;58.30;102068.31;6330251;22;20034;-81
2022/03/01 05:24:07;;;;;;;14.88;7.43;;;;;;;4.30;57.10;102079.94;6330846;22;20072;-80
2022/03/01 05:26:34;;;;;;;19.08;7.07;;;;;;;3.99;59.00;102074.63;6324861;22;19995;-81
2022/03/01 05:29:00;;;;;;;19.98;7.70;;;;;;;3.83;59.74;102071.13;6321889;22;20007;-81
2022/03/01 05:31:34;;;;;;;25.80;8.52;;;;;;;3.73;60.13;102075.16;6316718;22;20007;-81
2022/03/01 05:33:59;;;;;;;17.42;7.85;;;;;;;3.41;61.41;102069.84;6323232;22;20007;-84
2022/03/01 05:36:25;;;;;;;14.98;7.38;;;;;;;3.40;62.10;102062.88;6321991;22;20018;-84
2022/03/01 05:39:05;;;;;;;23.75;7.32;;;;;;;3.50;61.76;102076.38;6303737;22;20060;-85
2022/03/01 05:41:35;;;;;;;22.83;7.80;;;;;;;3.53;61.28;102090.16;6318144;22;20011;-83
2022/03/01 05:44:17;;;;;;;22.02;7.72;;;;;;;3.58;60.99;102082.88;6322940;22;19992;-85
2022/03/01 05:46:43;;;;;;;25.20;8.30;;;;;;;3.48;61.70;102076.44;6297745;22;20022;-82
2022/03/01 05:49:12;;;;;;;18.58;7.75;;;;;;;3.31;61.07;102076.47;6329887;22;20004;-83
2022/03/01 05:51:57;;;;;;;23.70;8.73;;;;;;;3.42;61.78;102075.91;6334237;22;20038;-87
2022/03/01 05:55:03;;;;;;;19.77;8.88;;;;;;;3.58;61.83;102085.50;6303769;22;19995;-83
2022/03/01 05:57:37;;;;;;;24.15;9.48;;;;;;;3.53;61.06;102084.91;6329721;22;20011;-84
2022/03/01 06:00:08;;;;;;;33.35;9.43;;;;;;;3.34;61.85;102085.94;6275579;22;20047;-83
2022/03/01 06:02:40;;;;;;;20.17;8.68;;;;;;;3.43;61.57;102083.69;6294958;22;20016;-85
2022/03/01 06:05:15;;;;;;;20.85;8.40;;;;;;;3.43;61.13;102088.09;6326256;22;20007;-87
2022/03/01 06:07:41;;;;;;;17.85;8.20;;;;;;;3.62;60.59;102080.97;6291673;22;20026;-82
2022/03/01 06:10:10;;;;;;;24.90;8.75;;;;;;;3.42;60.37;102082.00;6318508;22;20007;-88
2022/03/01 06:12:36;;;;;;;21.95;8.20;;;;;;;3.79;59.67;102074.84;6323594;22;20510;-88
2022/03/01 06:15:10;;;;;;;20.92;7.78;;;;;;;4.15;59.03;102078.97;6296269;22;20015;-82
2022/03/01 06:17:45;;;;;;;19.38;8.43;;;;;;;4.61;56.07;102087.78;6322718;22;20014;-84
2022/03/01 06:20:12;;;;;;;25.15;8.70;;;;;;;4.36;56.86;102076.09;6323265;22;20003;-84
2022/03/01 06:23:03;;;;;;;34.13;9.00;;;;;;;4.80;56.41;102081.50;6329405;22;20018;-86
2022/03/01 06:26:30;;;;;;;19.52;8.45;;;;;;;4.53;56.70;102068.16;6331959;22;20461;-87
2022/03/01 06:29:09;;;;;;;25.20;9.70;;;;;;;4.63;56.47;102074.59;6328625;22;20011;-84
2022/03/01 06:31:39;;;;;;;38.88;11.98;;;;;;;4.99;55.56;102074.28;6286777;22;20050;-84
2022/03/01 06:34:05;;;;;;;45.00;11.25;;;;;;;5.65;53.59;102083.44;6329333;22;20007;-83
2022/03/01 06:36:36;;;;;;;34.35;10.38;;;;;;;5.71;51.80;102077.81;6276764;22;20010;-83
2022/03/01 06:39:03;;;;;;;31.73;11.75;;;;;;;6.14;51.43;102089.19;6332815;22;20003;-86
2022/03/01 06:41:30;;;;;;;40.47;12.38;;;;;;;5.47;52.66;102086.34;6333745;22;20019;-88
2022/03/01 06:43:56;;;;;;;29.40;12.30;;;;;;;6.13;51.11;102095.41;6314393;22;20015;-88
2022/03/01 06:46:22;;;;;;;40.47;13.05;;;;;;;6.21;50.39;102093.16;6292482;22;20059;-87
2022/03/01 06:48:47;;;;;;;31.35;15.82;;;;;;;5.98;50.90;102092.88;6288600;22;20031;-89
2022/03/01 06:51:13;;;;;;;29.77;13.85;;;;;;;6.50;49.17;102093.94;6316392;22;20015;-84
2022/03/01 06:53:48;;;;;;;21.77;11.40;;;;;;;6.56;48.53;102093.53;6294478;22;20379;-85
2022/03/01 06:56:13;;;;;;;29.80;9.77;;;;;;;6.59;48.57;102098.66;6329866;22;20096;-82
2022/03/01 06:58:57;;;;;;;23.45;8.07;;;;;;;6.58;47.54;102104.00;6316541;22;20095;-81
2022/03/01 07:01:23;;;;;;;28.92;7.63;;;;;;;7.28;46.42;102102.88;6316665;22;20084;-86
2022/03/01 07:03:49;;;;;;;22.30;8.50;;;;;;;8.35;43.58;102107.78;6319722;22;20007;-83
2022/03/01 07:06:26;;;;;;;28.20;7.85;;;;;;;7.57;44.57;102109.69;6317855;22;20076;-87
2022/03/01 07:09:01;;;;;;;23.27;8.40;;;;;;;7.71;44.37;102106.94;6314385;22;20019;-84
2022/03/01 07:11:27;;;;;;;21.33;7.30;;;;;;;9.11;41.88;102116.28;6316822;22;20026;-85
2022/03/01 07:13:59;;;;;;;17.85;7.13;;;;;;;9.52;40.81;102118.44;6285713;22;20007;-84
2022/03/01 07:16:28;;;;;;;27.40;8.10;;;;;;;8.98;41.27;102123.41;6312906;22;20008;-83
2022/03/01 07:18:54;;;;;;;18.77;7.82;;;;;;;8.48;43.04;102121.81;6313351;22;20011;-85
2022/03/01 07:21:21;;;;;;;23.15;7.75;;;;;;;10.00;40.57;102123.59;6285096;22;20092;-82
2022/03/01 07:23:47;;;;;;;23.88;7.70;;;;;;;10.13;40.25;102124.31;6314162;22;20003;-82
2022/03/01 07:26:13;;;;;;;17.73;8.15;;;;;;;10.55;39.16;102120.94;6315018;22;20439;-86
2022/03/01 07:28:47;;;;;;;23.77;7.22;;;;;;;10.09;38.90;102128.16;6266681;22;20042;-84
2022/03/01 07:31:16;;;;;;;16.50;7.35;;;;;;;10.47;38.76;102128.69;6320733;22;20011;-86
2022/03/01 07:33:44;;;;;;;15.60;7.13;;;;;;;9.38;40.10;102128.41;6266230;22;20026;-85
2022/03/01 07:36:10;;;;;;;18.58;7.05;;;;;;;9.26;41.21;102132.78;6262693;22;20019;-82
2022/03/01 07:38:36;;;;;;;28.10;7.55;;;;;;;9.31;41.32;102135.94;6305119;22;20015;-81
2022/03/01 07:41:01;;;;;;;15.25;7.25;;;;;;;10.57;39.57;102134.09;6313551;22;20149;-84
2022/03/01 07:43:27;;;;;;;20.83;6.60;;;;;;;10.96;37.83;102135.31;6311489;22;20449;-84
2022/03/01 07:45:53;;;;;;;19.50;7.03;;;;;;;10.47;39.08;102127.84;6313000;22;20019;-83
2022/03/01 07:48:19;;;;;;;13.65;6.20;;;;;;;10.57;38.78;102129.59;6311085;22;20029;-89
2022/03/01 07:50:47;;;;;;;13.82;6.45;;;;;;;11.07;38.15;102133.47;6305058;22;20011;-86
2022/03/01 07:53:16;;;;;;;15.85;6.30;;;;;;;11.18;37.71;102140.53;6307472;22;20015;-84
2022/03/01 07:55:43;;;;;;;13.85;6.10;;;;;;;11.64;36.00;102137.53;6286721;22;20011;-88
2022/03/01 07:58:09;;;;;;;13.05;7.00;;;;;;;11.64;36.56;102140.19;6319158;22;20011;-83
2022/03/01 08:00:36;;;;;;;14.10;7.20;;;;;;;11.30;36.94;102137.72;6318553;22;20003;-84
2022/03/01 08:03:02;;;;;;;23.02;6.75;;;;;;;11.55;36.62;102138.31;6322721;22;20034;-81
2022/03/01 08:05:27;;;;;;;13.18;5.95;;;;;;;12.14;35.17;102141.22;6312201;22;20008;-85
2022/03/01 08:07:57;;;;;;;17.58;6.60;;;;;;;12.23;34.14;102143.13;6294524;22;20084;-81
2022/03/01 08:10:28;;;;;;;18.60;6.40;;;;;;;11.65;34.60;102149.88;6315724;22;20003;-83
2022/03/01 08:12:56;;;;;;;16.58;6.20;;;;;;;11.57;34.74;102139.88;6319340;22;20070;-82
2022/03/01 08:15:26;;;;;;;20.45;6.80;;;;;;;11.43;35.19;102148.19;6296770;22;20430;-83
2022/03/01 08:18:01;;;;;;;11.60;6.35;;;;;;;12.18;34.34;102146.16;6291474;22;20018;-82
2022/03/01 08:20:27;;;;;;;12.82;6.47;;;;;;;12.40;33.83;102147.78;6318442;22;20003;-81
2022/03/01 08:23:06;;;;;;;14.80;6.68;;;;;;;12.05;33.74;102148.19;6294691;22;20012;-83
2022/03/01 08:25:37;;;;;;;18.10;6.18;;;;;;;12.05;33.79;102147.34;6322987;22;20141;-80
2022/03/01 08:28:05;;;;;;;10.25;6.03;;;;;;;11.66;34.91;102151.56;6322976;22;20034;-84
2022/03/01 08:30:35;;;;;;;21.08;6.97;;;;;;;11.94;34.03;102145.59;6319879;22;20490;-82
2022/03/01 08:33:07;;;;;;;10.60;6.40;;;;;;;12.23;34.21;102143.94;6325639;22;20015;-86
2022/03/01 08:35:34;;;;;;;15.63;6.72;;;;;;;12.34;33.45;102143.00;6326282;22;20067;-84
2022/03/01 08:38:25;;;;;;;20.98;7.00;;;;;;;12.46;33.15;102138.44;6321829;22;20010;-85
2022/03/01 08:41:06;;;;;;;54.88;21.48;;;;;;;12.84;32.55;102144.69;6328147;22;20031;-87
2022/03/01 08:43:38;;;;;;;15.25;6.68;;;;;;;12.79;31.71;102144.25;6284126;22;20098;-86
2022/03/01 08:52:15;;;;;;;14.88;6.95;;;;;;;13.13;31.69;102135.94;6266281;22;20068;-85
2022/03/01 08:54:41;;;;;;;15.38;6.40;;;;;;;12.79;31.74;102141.59;6308028;22;20076;-86
2022/03/01 08:57:06;;;;;;;15.23;7.13;;;;;;;12.47;32.44;102127.66;6255270;22;20065;-85
2022/03/01 08:59:32;;;;;;;13.95;6.20;;;;;;;11.86;33.09;102130.31;6309441;22;20112;-87
2022/03/01 09:01:58;;;;;;;11.70;6.25;;;;;;;12.31;31.49;102132.63;6285814;22;20084;-86
2022/03/01 09:04:24;;;;;;;14.60;6.78;;;;;;;12.90;32.06;102133.50;6281339;22;20011;-87
2022/03/01 09:06:50;;;;;;;12.50;6.68;;;;;;;12.61;32.33;102135.25;6309264;22;20442;-86
2022/03/01 09:09:15;;;;;;;15.95;7.07;;;;;;;13.62;29.99;102133.09;6309712;22;20002;-85
2022/03/01 09:11:41;;;;;;;14.75;6.40;;;;;;;13.22;30.28;102135.13;6310029;22;20054;-83
2022/03/01 09:14:06;;;;;;;22.77;7.90;;;;;;;13.00;31.08;102130.00;6281737;22;20446;-85
2022/03/01 09:16:32;;;;;;;12.90;6.65;;;;;;;13.00;30.93;102130.84;6281910;22;20007;-88
2022/03/01 09:18:58;;;;;;;14.43;6.40;;;;;;;13.97;29.33;102129.81;6309936;22;20007;-86
2022/03/01 09:21:24;;;;;;;12.60;6.35;;;;;;;14.11;28.44;102128.50;6311069;22;20018;-85
2022/03/01 09:23:49;;;;;;;12.90;6.05;;;;;;;13.65;29.22;102127.50;6281718;22;20007;-85
2022/03/01 09:26:16;;;;;;;12.82;6.50;;;;;;;13.58;29.03;102121.06;6306182;22;20037;-86
2022/03/01 09:28:42;;;;;;;18.08;7.10;;;;;;;13.01;29.47;102115.72;6281815;22;20065;-86
2022/03/01 09:31:10;;;;;;;11.98;5.82;;;;;;;12.55;29.36;102114.53;6308692;22;20014;-84
2022/03/01 09:33:42;;;;;;;9.90;5.93;;;;;;;13.09;29.19;102110.59;6310275;22;20053;-85
2022/03/01 09:36:12;;;;;;;14.68;6.63;;;;;;;12.59;29.72;102110.63;6311251;22;20034;-91
2022/03/01 09:38:40;;;;;;;15.65;5.20;;;;;;;11.50;30.24;102109.50;6312741;22;20022;-88
2022/03/01 09:41:06;;;;;;;13.07;5.97;;;;;;;11.03;31.55;102100.22;6321268;22;20008;-85
2022/03/01 09:43:36;;;;;;;10.50;5.93;;;;;;;10.77;32.43;102090.91;6316605;22;20017;-87
2022/03/01 09:46:04;;;;;;;12.88;5.70;;;;;;;10.70;32.53;102087.06;6315667;22;20813;-87
2022/03/01 09:48:30;;;;;;;14.60;5.82;;;;;;;10.55;32.45;102083.84;6311889;22;20065;-87
2022/03/01 09:50:59;;;;;;;13.23;6.40;;;;;;;10.54;32.55;102082.13;6312265;22;20011;-88
2022/03/01 09:53:26;;;;;;;10.57;5.68;;;;;;;10.35;32.84;102079.28;6303542;22;20011;-84
2022/03/01 09:56:04;;;;;;;13.35;5.45;;;;;;;10.01;33.74;102067.00;6305484;22;20019;-89
2022/03/01 09:58:29;;;;;;;12.55;7.13;;;;;;;9.94;33.35;102071.94;6284772;22;20450;-82
2022/03/01 10:00:55;;;;;;;13.82;6.25;;;;;;;9.77;33.52;102064.47;6307734;22;20019;-84
2022/03/01 10:03:21;;;;;;;13.32;6.38;;;;;;;9.41;33.86;102060.22;6308231;22;20003;-84
2022/03/01 10:05:46;;;;;;;12.50;6.40;;;;;;;10.40;33.07;102065.69;6308417;22;20038;-84
2022/03/01 10:08:18;;;;;;;13.02;5.95;;;;;;;10.70;31.03;102057.91;6309488;22;20011;-84
2022/03/01 10:10:49;;;;;;;13.05;5.95;;;;;;;12.50;28.53;102063.56;6308254;22;20082;-85
2022/03/01 10:13:28;;;;;;;15.45;5.57;;;;;;;12.94;27.49;102057.72;6280600;22;20007;-83
2022/03/01 10:16:10;;;;;;;10.07;5.60;;;;;;;12.44;28.63;102058.78;6285085;22;20029;-84
2022/03/01 10:18:38;;;;;;;13.13;5.63;;;;;;;12.33;28.92;102056.22;6313104;22;20751;-83
2022/03/01 10:21:10;;;;;;;10.63;6.07;;;;;;;13.61;27.99;102046.19;6311417;22;20276;-82
2022/03/01 10:23:45;;;;;;;11.97;4.50;;;;;;;15.17;25.40;102054.84;6285834;22;20028;-81
2022/03/01 10:26:12;;;;;;;12.77;5.13;;;;;;;15.17;25.40;102054.84;6314267;22;20252;-81
2022/03/01 10:28:38;;;;;;;10.23;5.00;;;;;;;16.74;22.48;102053.47;6314370;22;20007;-79
2022/03/01 10:31:24;;;;;;;12.10;5.15;;;;;;;17.93;20.65;102059.97;6309977;22;20011;-83
2022/03/01 10:34:10;;;;;;;9.63;4.45;;;;;;;18.43;20.24;102048.81;6309867;22;20508;-81
2022/03/01 10:36:44;;;;;;;12.13;6.10;;;;;;;16.25;21.94;102040.94;6310774;22;20018;-80
2022/03/01 10:39:13;;;;;;;10.40;4.78;;;;;;;16.99;20.81;102036.44;6311792;22;20490;-84
2022/03/01 10:41:41;;;;;;;11.50;5.07;;;;;;;17.31;20.11;102034.75;6280859;22;20042;-85
2022/03/01 10:44:11;;;;;;;12.35;4.30;;;;;;;17.64;20.14;102035.56;6308917;22;20011;-85
2022/03/01 10:46:40;;;;;;;8.90;4.13;;;;;;;17.21;19.85;102020.69;6257937;22;20035;-83
2022/03/01 10:49:11;;;;;;;6.63;4.32;;;;;;;17.49;19.37;102017.47;6309720;22;20011;-82
2022/03/01 10:52:03;;;;;;;10.18;4.60;;;;;;;16.57;20.59;102021.50;6281274;22;20327;-86
2022/03/01 10:54:38;;;;;;;7.75;4.10;;;;;;;13.94;23.20;102012.81;6285637;22;20008;-83
2022/03/01 10:57:07;;;;;;;11.30;4.75;;;;;;;13.11;24.97;101999.47;6282470;22;20011;-84
2022/03/01 10:59:35;;;;;;;11.30;5.10;;;;;;;12.24;25.80;101998.56;6310526;22;20015;-82
2022/03/01 11:02:03;;;;;;;7.75;4.00;;;;;;;11.87;25.69;101990.34;6285545;22;20053;-85
2022/03/01 11:04:28;;;;;;;10.05;4.93;;;;;;;11.65;26.86;101985.22;6282904;22;20050;-84
2022/03/01 11:06:56;;;;;;;8.57;4.55;;;;;;;11.57;26.75;101988.53;6285965;22;20011;-84
2022/03/01 11:09:26;;;;;;;8.48;4.72;;;;;;;11.27;26.83;101992.00;6312129;22;20237;-85
2022/03/01 11:11:54;;;;;;;8.40;4.93;;;;;;;11.40;26.50;101981.19;6309640;22;20061;-83
2022/03/01 11:14:35;;;;;;;10.18;4.70;;;;;;;10.58;28.20;101977.53;6309013;22;20523;-83
2022/03/01 11:17:52;;;;;;;10.82;4.63;;;;;;;10.81;28.55;101968.50;6312156;22;20011;-87
2022/03/01 11:20:25;;;;;;;12.23;4.45;;;;;;;10.59;28.20;101958.03;6291051;22;20011;-85
2022/03/01 11:23:11;;;;;;;7.50;4.93;;;;;;;10.21;28.45;101949.72;6313473;22;20098;-84
2022/03/01 11:25:38;;;;;;;8.55;4.75;;;;;;;10.69;28.31;101950.97;6280910;22;20433;-86
2022/03/01 11:28:09;;;;;;;9.90;4.50;;;;;;;10.46;28.65;101941.44;6256308;22;20090;-85
2022/03/01 11:30:52;;;;;;;9.90;5.45;;;;;;;10.30;28.76;101941.03;6307166;22;20381;-84
2022/03/01 11:33:35;;;;;;;8.32;4.45;;;;;;;10.63;28.71;101937.41;6284607;22;20019;-85
2022/03/01 11:36:02;;;;;;;;;;;;;;;11.03;27.94;101926.94;6285081;22;20450;-84
2022/03/01 11:38:30;;;;;;;11.43;5.10;;;;;;;11.70;27.46;101920.13;6283711;22;19915;-85
2022/03/01 11:41:14;;;;;;;9.20;4.85;;;;;;;12.20;26.84;101914.75;6307951;22;20019;-84
2022/03/01 11:43:40;;;;;;;7.88;4.68;;;;;;;11.78;27.45;101917.63;6281868;22;20334;-86
2022/03/01 11:46:19;;;;;;;8.27;5.35;;;;;;;11.29;27.94;101902.50;6314361;22;20007;-86
2022/03/01 11:48:53;;;;;;;8.93;4.97;;;;;;;11.45;27.95;101899.34;6315758;22;20064;-84
2022/03/01 11:51:31;;;;;;;10.18;5.32;;;;;;;11.88;27.62;101894.59;6311241;22;20516;-86
2022/03/01 11:54:00;;;;;;;9.35;5.22;;;;;;;11.60;28.24;101890.00;6256008;22;20086;-86
2022/03/01 11:56:25;;;;;;;10.73;5.55;;;;;;;12.54;27.39;101884.13;6309261;22;19999;-91
2022/03/01 11:58:51;;;;;;;14.82;5.15;;;;;;;12.50;26.76;101877.41;6310452;22;20072;-88
2022/03/01 12:01:23;;;;;;;9.65;5.47;;;;;;;12.50;27.26;101866.78;6311396;22;20011;-88
2022/03/01 12:03:51;;;;;;;11.70;5.77;;;;;;;12.92;26.67;101868.09;6258100;22;20090;-84
2022/03/01 12:06:21;;;;;;;8.23;5.47;;;;;;;12.33;27.06;101862.16;6298905;22;20316;-87
2022/03/01 12:08:56;;;;;;;12.95;5.20;;;;;;;12.06;27.95;101851.41;6257921;22;20000;-87
2022/03/01 12:11:31;;;;;;;14.70;5.93;;;;;;;11.08;29.25;101851.25;6310597;22;20029;-85